Time;durP1;ratioP1;P1;durP2;ratioP2;P2;SDS_P1;SDS_P2;PMS_P1;PMS_P2;Temp;Humidity;BMP_temperature;BMP_pressure;BME280_temperature;BME280_humidity;BME280_pressure;Samples;Min_cycle;Max_cycle;Signal;HPM_P1;HPM_P2
2022/01/26 00:00:03;;;;;;;31.13;13.33;;;;;;;;;;5118314;27;20434;-72
2022/01/26 00:08:01;;;;;;;24.27;11.73;;;;;;;;;;5114306;27;20473;-72
2022/01/26 00:10:28;;;;;;;26.57;8.80;;;;;;;;;;5117518;27;20541;-72
2022/01/26 00:12:56;;;;;;;28.60;11.87;;;;;;;;;;5102761;27;20900;-72
2022/01/26 00:15:23;;;;;;;24.90;10.97;;;;;;;;;;5098039;27;20451;-72
2022/01/26 00:17:53;;;;;;;29.90;10.60;;;;;;;;;;5098408;27;20459;-72
2022/01/26 00:20:25;;;;;;;26.60;12.10;;;;;;;;;;5099746;27;20447;-72
2022/01/26 00:23:18;;;;;;;30.17;11.93;;;;;;;;;;5097590;27;20460;-72
2022/01/26 00:25:59;;;;;;;31.43;11.40;;;;;;;;;;5102903;27;20916;-71
2022/01/26 00:28:45;;;;;;;31.33;11.90;;;;;;;;;;5103866;27;20454;-72
2022/01/26 00:39:32;;;;;;;20.07;11.10;;;;;;;;;;5118426;27;20919;-72
2022/01/26 00:42:00;;;;;;;29.90;11.40;;;;;;;;;;5118111;27;20446;-71
2022/01/26 00:44:37;;;;;;;29.70;10.87;;;;;;;;;;5117384;27;20881;-71
2022/01/26 00:47:05;;;;;;;29.10;12.70;;;;;;;;;;5116760;27;20497;-70
2022/01/26 00:49:36;;;;;;;27.63;11.97;;;;;;;;;;5105261;27;20488;-71
2022/01/26 00:52:06;;;;;;;27.00;10.63;;;;;;;;;;5097909;27;20574;-77
2022/01/26 00:54:34;;;;;;;24.53;10.80;;;;;;;;;;5098725;27;20847;-72
2022/01/26 00:57:01;;;;;;;28.73;13.37;;;;;;;;;;5113350;27;20478;-72
2022/01/26 00:59:29;;;;;;;24.73;9.37;;;;;;;;;;5118409;27;20875;-72
2022/01/26 01:01:56;;;;;;;20.07;9.07;;;;;;;;;;5113763;27;20459;-71
2022/01/26 01:04:24;;;;;;;26.00;10.07;;;;;;;;;;5120860;27;20437;-71
2022/01/26 01:06:56;;;;;;;25.90;11.20;;;;;;;;;;5110035;27;20471;-71
2022/01/26 01:09:24;;;;;;;27.80;13.20;;;;;;;;;;5131875;27;20449;-71
2022/01/26 01:11:56;;;;;;;22.47;11.03;;;;;;;;;;5111560;27;20736;-70
2022/01/26 01:14:36;;;;;;;24.97;8.93;;;;;;;;;;5117278;27;20435;-71
2022/01/26 01:17:04;;;;;;;27.60;10.10;;;;;;;;;;5128140;27;20442;-71
2022/01/26 01:19:36;;;;;;;20.60;9.60;;;;;;;;;;5138586;27;20457;-72
2022/01/26 01:22:29;;;;;;;29.93;12.80;;;;;;;;;;5138070;27;20446;-72
2022/01/26 01:30:28;;;;;;;23.50;11.53;;;;;;;;;;5079490;27;20875;-71
2022/01/26 01:33:08;;;;;;;25.80;10.77;;;;;;;;;;5097270;28;20945;-72
2022/01/26 01:35:37;;;;;;;22.00;9.97;;;;;;;;;;5097351;28;20459;-72
2022/01/26 01:38:10;;;;;;;25.77;10.70;;;;;;;;;;5098192;28;20464;-71
2022/01/26 01:40:38;;;;;;;24.13;9.40;;;;;;;;;;5097330;28;20974;-71
2022/01/26 01:43:05;;;;;;;28.10;10.83;;;;;;;;;;5098531;27;20875;-72
2022/01/26 01:45:33;;;;;;;20.60;8.87;;;;;;;;;;5114476;27;20508;-72
2022/01/26 01:48:00;;;;;;;28.60;10.53;;;;;;;;;;5117217;27;20456;-71
2022/01/26 01:50:27;;;;;;;26.93;10.30;;;;;;;;;;5117607;27;20459;-72
2022/01/26 01:53:00;;;;;;;23.73;11.70;;;;;;;;;;5114273;27;20734;-72
2022/01/26 01:55:29;;;;;;;26.17;9.90;;;;;;;;;;5108717;28;20452;-72
2022/01/26 01:57:56;;;;;;;22.10;8.87;;;;;;;;;;5096534;28;20459;-72
2022/01/26 02:00:23;;;;;;;23.17;9.53;;;;;;;;;;5105839;27;20474;-72
2022/01/26 02:02:51;;;;;;;22.13;9.67;;;;;;;;;;5104932;28;20761;-71
2022/01/26 02:05:18;;;;;;;20.10;9.97;;;;;;;;;;5117602;27;20527;-71
2022/01/26 02:07:45;;;;;;;12.00;6.70;;;;;;;;;;5109674;27;20540;-72
2022/01/26 02:10:16;;;;;;;15.60;7.63;;;;;;;;;;5101056;28;20466;-71
2022/01/26 02:12:49;;;;;;;22.33;9.17;;;;;;;;;;5097766;27;20475;-71
2022/01/26 02:15:20;;;;;;;25.80;8.63;;;;;;;;;;5101864;28;21020;-71
2022/01/26 02:51:18;;;;;;;22.30;10.50;;;;;;;;;;5119575;27;21787;-71
2022/01/26 02:54:00;;;;;;;26.47;10.13;;;;;;;;;;5120327;27;20446;-71
2022/01/26 02:56:37;;;;;;;17.50;9.07;;;;;;;;;;5120174;27;20538;-71
2022/01/26 02:59:27;;;;;;;22.43;10.97;;;;;;;;;;5106463;28;20459;-71
2022/01/26 03:01:57;;;;;;;27.03;9.37;;;;;;;;;;5100321;28;20544;-71
2022/01/26 03:04:35;;;;;;;16.80;9.27;;;;;;;;;;5100693;28;20516;-71
2022/01/26 03:07:07;;;;;;;22.30;9.50;;;;;;;;;;5103022;28;20542;-71
2022/01/26 03:09:40;;;;;;;20.60;10.00;;;;;;;;;;5099193;28;20525;-71
2022/01/26 03:12:09;;;;;;;21.80;8.97;;;;;;;;;;5102012;28;21011;-71
2022/01/26 03:14:45;;;;;;;12.37;6.47;;;;;;;;;;5119037;27;20465;-71
2022/01/26 03:17:23;;;;;;;18.70;7.67;;;;;;;;;;5120035;27;20438;-71
2022/01/26 03:19:56;;;;;;;15.43;7.17;;;;;;;;;;5106364;27;20454;-71
2022/01/26 03:31:10;;;;;;;20.57;9.27;;;;;;;;;;5099428;28;20588;-72
2022/01/26 03:33:54;;;;;;;18.43;7.27;;;;;;;;;;5099378;28;20764;-72
2022/01/26 03:36:27;;;;;;;14.83;6.80;;;;;;;;;;5099334;28;20872;-71
2022/01/26 03:39:07;;;;;;;20.43;8.80;;;;;;;;;;5098904;28;20482;-71
2022/01/26 03:41:43;;;;;;;17.47;7.93;;;;;;;;;;5118196;28;20453;-71
2022/01/26 03:44:10;;;;;;;22.77;10.37;;;;;;;;;;5117437;28;20447;-71
2022/01/26 03:46:38;;;;;;;21.37;9.40;;;;;;;;;;5119251;27;20759;-71
2022/01/26 03:49:06;;;;;;;24.13;9.70;;;;;;;;;;5110445;27;20444;-71
2022/01/26 03:51:33;;;;;;;22.70;9.40;;;;;;;;;;5098527;28;20524;-71
2022/01/26 03:54:01;;;;;;;18.40;7.03;;;;;;;;;;5104683;27;20608;-71
2022/01/26 03:56:28;;;;;;;26.23;11.60;;;;;;;;;;5117879;27;20451;-70
2022/01/26 03:58:56;;;;;;;17.10;8.30;;;;;;;;;;5117067;27;20446;-70
2022/01/26 04:01:25;;;;;;;22.63;10.43;;;;;;;;;;5104592;28;20800;-70
2022/01/26 04:03:52;;;;;;;22.70;9.20;;;;;;;;;;5112941;27;20493;-71
2022/01/26 04:06:23;;;;;;;30.57;13.73;;;;;;;;;;5119015;27;20541;-71
2022/01/26 04:08:50;;;;;;;28.43;11.10;;;;;;;;;;5118106;27;20523;-71
2022/01/26 04:14:10;;;;;;;21.03;10.37;;;;;;;;;;5095158;28;20491;-72
2022/01/26 04:16:38;;;;;;;20.60;10.70;;;;;;;;;;5098040;28;20452;-71
2022/01/26 04:19:05;;;;;;;20.10;11.00;;;;;;;;;;5117707;27;20453;-71
2022/01/26 04:21:45;;;;;;;24.93;12.63;;;;;;;;;;5118465;27;20455;-71
2022/01/26 04:24:19;;;;;;;23.70;10.47;;;;;;;;;;5111061;27;20460;-71
2022/01/26 04:26:51;;;;;;;21.63;11.40;;;;;;;;;;5097662;28;20447;-71
2022/01/26 04:29:23;;;;;;;18.50;9.20;;;;;;;;;;5098843;28;20563;-71
2022/01/26 04:31:50;;;;;;;27.93;11.47;;;;;;;;;;5098162;28;20483;-71
2022/01/26 04:34:21;;;;;;;29.90;13.70;;;;;;;;;;5098105;28;20467;-71
2022/01/26 04:36:53;;;;;;;31.40;12.90;;;;;;;;;;5112120;28;20534;-71
2022/01/26 04:39:24;;;;;;;30.10;10.90;;;;;;;;;;5118068;28;20454;-71
2022/01/26 04:41:58;;;;;;;27.30;10.30;;;;;;;;;;5117914;27;20443;-72
2022/01/26 04:44:30;;;;;;;37.77;12.70;;;;;;;;;;5098590;28;20720;-71
2022/01/26 04:46:58;;;;;;;28.87;13.03;;;;;;;;;;5097852;28;20744;-71
2022/01/26 04:49:25;;;;;;;30.07;13.60;;;;;;;;;;5098961;28;20480;-71
2022/01/26 04:51:52;;;;;;;30.87;10.83;;;;;;;;;;5100035;28;20514;-71
2022/01/26 04:54:19;;;;;;;19.17;7.73;;;;;;;;;;5103630;28;20535;-71
2022/01/26 04:56:46;;;;;;;26.43;11.47;;;;;;;;;;5108457;27;20447;-71
2022/01/26 04:59:13;;;;;;;23.00;9.70;;;;;;;;;;5111237;27;21025;-71
2022/01/26 05:01:41;;;;;;;33.60;12.13;;;;;;;;;;5103825;28;20538;-71
2022/01/26 05:04:08;;;;;;;19.60;10.03;;;;;;;;;;5098410;28;20460;-71
2022/01/26 05:06:35;;;;;;;38.13;13.63;;;;;;;;;;5102762;27;20451;-71
2022/01/26 05:09:03;;;;;;;26.97;12.63;;;;;;;;;;5116581;27;20446;-70
2022/01/26 05:11:34;;;;;;;21.77;11.07;;;;;;;;;;5117662;27;20462;-71
2022/01/26 05:14:02;;;;;;;35.90;12.90;;;;;;;;;;5102540;28;20472;-71
2022/01/26 05:16:29;;;;;;;26.60;11.10;;;;;;;;;;5097886;28;20460;-71
2022/01/26 05:18:57;;;;;;;29.77;13.67;;;;;;;;;;5096698;28;20477;-71
2022/01/26 05:21:24;;;;;;;23.63;11.30;;;;;;;;;;5108443;28;20467;-72
2022/01/26 05:23:51;;;;;;;36.80;12.20;;;;;;;;;;5112588;27;20459;-71
2022/01/26 05:26:19;;;;;;;27.00;12.20;;;;;;;;;;5118428;27;20794;-71
2022/01/26 05:28:47;;;;;;;30.73;13.07;;;;;;;;;;5113730;28;20459;-71
2022/01/26 05:31:15;;;;;;;30.93;12.60;;;;;;;;;;5115378;27;20462;-71
2022/01/26 05:33:42;;;;;;;25.17;12.57;;;;;;;;;;5104537;28;20487;-71
2022/01/26 05:36:10;;;;;;;30.50;13.23;;;;;;;;;;5098316;28;20451;-71
2022/01/26 05:38:37;;;;;;;22.33;11.20;;;;;;;;;;5117059;27;20454;-71
2022/01/26 05:41:04;;;;;;;16.80;8.10;;;;;;;;;;5118112;27;20462;-71
2022/01/26 05:43:32;;;;;;;23.20;8.80;;;;;;;;;;5117643;27;20465;-71
2022/01/26 05:46:03;;;;;;;17.97;8.23;;;;;;;;;;5117178;27;20455;-71
2022/01/26 05:48:30;;;;;;;18.57;7.00;;;;;;;;;;5104002;27;20550;-71
2022/01/26 05:51:05;;;;;;;16.40;8.50;;;;;;;;;;5117235;27;20858;-71
2022/01/26 05:53:36;;;;;;;20.23;7.13;;;;;;;;;;5115367;27;20825;-71
2022/01/26 05:56:04;;;;;;;20.10;9.60;;;;;;;;;;5106353;27;20470;-71
2022/01/26 05:58:31;;;;;;;22.10;10.07;;;;;;;;;;5116038;27;20518;-71
2022/01/26 06:00:59;;;;;;;18.07;7.47;;;;;;;;;;5099431;28;20475;-71
2022/01/26 06:03:32;;;;;;;14.90;6.77;;;;;;;;;;5096723;28;20456;-71
2022/01/26 06:05:59;;;;;;;9.90;4.80;;;;;;;;;;5096443;28;20482;-71
2022/01/26 06:08:27;;;;;;;15.53;6.90;;;;;;;;;;5114236;27;20469;-71
2022/01/26 06:10:55;;;;;;;12.90;6.83;;;;;;;;;;5120796;27;20450;-71
2022/01/26 06:13:23;;;;;;;13.80;6.07;;;;;;;;;;5119825;27;20547;-71
2022/01/26 06:15:51;;;;;;;10.80;5.73;;;;;;;;;;5103554;27;21083;-71
2022/01/26 06:18:18;;;;;;;13.10;6.47;;;;;;;;;;5099291;28;20457;-71
2022/01/26 06:20:45;;;;;;;12.83;6.40;;;;;;;;;;5098807;28;20557;-71
2022/01/26 06:23:12;;;;;;;13.53;7.23;;;;;;;;;;5098587;28;20452;-71
2022/01/26 06:25:41;;;;;;;7.00;4.23;;;;;;;;;;5105600;28;20545;-71
2022/01/26 06:28:12;;;;;;;16.80;5.13;;;;;;;;;;5115239;27;20516;-71
2022/01/26 06:30:39;;;;;;;12.40;6.33;;;;;;;;;;5117579;27;20565;-71
2022/01/26 06:33:07;;;;;;;15.13;7.30;;;;;;;;;;5111229;27;20483;-71
2022/01/26 06:35:34;;;;;;;10.90;4.87;;;;;;;;;;5098589;28;20459;-71
2022/01/26 06:38:02;;;;;;;16.17;7.13;;;;;;;;;;5109918;28;20451;-71
2022/01/26 06:40:29;;;;;;;16.40;5.60;;;;;;;;;;5110768;27;20469;-71
2022/01/26 06:42:59;;;;;;;12.43;6.70;;;;;;;;;;5119990;27;21040;-70
2022/01/26 06:45:31;;;;;;;14.53;7.47;;;;;;;;;;5119734;27;20446;-71
2022/01/26 06:48:25;;;;;;;12.13;5.63;;;;;;;;;;5117762;27;20454;-71
2022/01/26 06:50:53;;;;;;;16.17;6.40;;;;;;;;;;5117253;27;20881;-71
2022/01/26 06:53:20;;;;;;;18.23;6.47;;;;;;;;;;5117818;27;20535;-71
2022/01/26 06:55:47;;;;;;;11.30;5.03;;;;;;;;;;5107497;28;20450;-71
2022/01/26 06:58:14;;;;;;;14.73;7.50;;;;;;;;;;5116080;28;20746;-71
2022/01/26 07:00:42;;;;;;;8.80;3.90;;;;;;;;;;5099058;28;20439;-71
2022/01/26 07:03:09;;;;;;;13.40;5.97;;;;;;;;;;5115105;28;20865;-71
2022/01/26 07:05:40;;;;;;;11.13;6.23;;;;;;;;;;5112350;28;20525;-71
2022/01/26 07:08:08;;;;;;;15.37;7.97;;;;;;;;;;5110484;28;20451;-71
2022/01/26 07:10:35;;;;;;;4.80;3.13;;;;;;;;;;5113063;27;20916;-71
2022/01/26 07:13:02;;;;;;;13.23;5.93;;;;;;;;;;5118130;27;20510;-72
2022/01/26 07:21:27;;;;;;;10.07;6.57;;;;;;;;;;5097082;28;20439;-71
2022/01/26 07:23:55;;;;;;;15.00;7.30;;;;;;;;;;5097692;28;20445;-71
2022/01/26 07:26:25;;;;;;;11.17;6.17;;;;;;;;;;5096507;28;20466;-72
2022/01/26 07:28:57;;;;;;;13.70;7.00;;;;;;;;;;5097818;28;20478;-72
2022/01/26 07:31:24;;;;;;;9.30;5.00;;;;;;;;;;5097953;28;20467;-72
2022/01/26 07:33:54;;;;;;;9.20;4.57;;;;;;;;;;5103898;28;20841;-71
2022/01/26 07:36:24;;;;;;;12.13;6.03;;;;;;;;;;5118038;27;20479;-71
2022/01/26 07:38:54;;;;;;;16.77;6.70;;;;;;;;;;5103918;27;20444;-72
2022/01/26 07:41:21;;;;;;;9.77;5.53;;;;;;;;;;5098128;28;20460;-71
2022/01/26 07:43:48;;;;;;;11.07;5.00;;;;;;;;;;5107676;27;21125;-72
2022/01/26 07:46:17;;;;;;;13.80;8.07;;;;;;;;;;5103114;28;20471;-72
2022/01/26 07:48:58;;;;;;;9.40;5.43;;;;;;;;;;5117270;27;20450;-72
2022/01/26 07:51:47;;;;;;;13.20;7.30;;;;;;;;;;5115207;27;20843;-72
2022/01/26 07:54:18;;;;;;;10.40;4.57;;;;;;;;;;5107997;27;20452;-72
2022/01/26 07:56:46;;;;;;;12.20;6.17;;;;;;;;;;5113951;27;20469;-71
2022/01/26 07:59:13;;;;;;;10.77;5.40;;;;;;;;;;5114466;27;20459;-71
2022/01/26 08:01:44;;;;;;;10.53;6.43;;;;;;;;;;5111427;27;20477;-73
2022/01/26 08:04:12;;;;;;;15.00;7.50;;;;;;;;;;5114353;28;20455;-72
2022/01/26 08:06:41;;;;;;;12.40;5.50;;;;;;;;;;5116313;27;20894;-72
2022/01/26 08:09:11;;;;;;;14.53;6.10;;;;;;;;;;5114738;28;20447;-73
2022/01/26 08:11:49;;;;;;;10.07;5.70;;;;;;;;;;5119010;27;20470;-72
2022/01/26 08:14:16;;;;;;;13.83;9.00;;;;;;;;;;5117166;27;20546;-71
2022/01/26 08:16:44;;;;;;;13.00;8.10;;;;;;;;;;5112619;27;20458;-72
2022/01/26 08:19:14;;;;;;;14.07;7.40;;;;;;;;;;5117951;27;20451;-71
2022/01/26 08:21:46;;;;;;;12.30;6.40;;;;;;;;;;5099044;28;20466;-72
2022/01/26 08:24:14;;;;;;;12.70;7.80;;;;;;;;;;5102922;27;20514;-71
2022/01/26 08:26:46;;;;;;;20.03;8.70;;;;;;;;;;5107181;27;20843;-72
2022/01/26 08:29:17;;;;;;;13.77;8.80;;;;;;;;;;5103668;28;20591;-72
2022/01/26 08:31:46;;;;;;;14.63;9.23;;;;;;;;;;5114726;28;20462;-72
2022/01/26 08:34:13;;;;;;;16.33;8.10;;;;;;;;;;5103607;27;20455;-71
2022/01/26 08:36:40;;;;;;;14.63;6.83;;;;;;;;;;5117622;27;20510;-71
2022/01/26 08:39:08;;;;;;;16.40;7.40;;;;;;;;;;5112816;27;20936;-71
2022/01/26 08:41:36;;;;;;;13.73;7.00;;;;;;;;;;5110251;27;20452;-72
2022/01/26 08:44:03;;;;;;;19.50;9.57;;;;;;;;;;5095968;28;20495;-71
2022/01/26 08:46:31;;;;;;;16.77;10.50;;;;;;;;;;5109250;27;20511;-72
2022/01/26 08:49:01;;;;;;;11.40;6.80;;;;;;;;;;5114427;27;20439;-72
2022/01/26 08:51:31;;;;;;;17.40;8.27;;;;;;;;;;5115612;28;20509;-71
2022/01/26 08:54:00;;;;;;;15.23;10.07;;;;;;;;;;5108920;28;20579;-72
2022/01/26 08:56:31;;;;;;;16.03;9.50;;;;;;;;;;5107835;28;20520;-72
2022/01/26 08:58:59;;;;;;;14.70;7.53;;;;;;;;;;5099827;28;20470;-71
2022/01/26 09:01:30;;;;;;;12.77;6.40;;;;;;;;;;5108663;28;20825;-72
2022/01/26 09:03:58;;;;;;;13.13;8.97;;;;;;;;;;5109947;27;20448;-71
2022/01/26 09:06:29;;;;;;;16.13;8.93;;;;;;;;;;5100006;28;20814;-72
2022/01/26 09:09:01;;;;;;;18.73;9.40;;;;;;;;;;5113149;28;20438;-71
2022/01/26 09:11:29;;;;;;;15.27;7.13;;;;;;;;;;5104879;28;20444;-71
2022/01/26 09:13:58;;;;;;;5.73;4.17;;;;;;;;;;5096314;28;20540;-71
2022/01/26 09:16:31;;;;;;;11.80;5.93;;;;;;;;;;5097365;28;20462;-72
2022/01/26 09:19:09;;;;;;;14.47;7.67;;;;;;;;;;5098152;28;20452;-71
2022/01/26 09:21:39;;;;;;;18.63;8.07;;;;;;;;;;5102963;27;20524;-71
2022/01/26 09:24:08;;;;;;;7.80;4.50;;;;;;;;;;5107081;28;20451;-71
2022/01/26 09:26:36;;;;;;;11.37;6.63;;;;;;;;;;5102363;27;20496;-72
2022/01/26 09:29:07;;;;;;;10.07;6.37;;;;;;;;;;5094284;28;20436;-71
2022/01/26 09:31:47;;;;;;;14.00;5.90;;;;;;;;;;5096938;27;20458;-71
2022/01/26 09:34:22;;;;;;;17.07;9.33;;;;;;;;;;5096487;28;20467;-71
2022/01/26 09:36:50;;;;;;;12.27;6.53;;;;;;;;;;5095538;28;20451;-70
2022/01/26 09:39:34;;;;;;;14.90;7.40;;;;;;;;;;5096910;28;20448;-71
2022/01/26 09:42:03;;;;;;;9.87;5.67;;;;;;;;;;5096793;28;20448;-72
2022/01/26 09:44:32;;;;;;;12.50;6.20;;;;;;;;;;5099072;28;20545;-72
2022/01/26 09:47:05;;;;;;;15.87;8.83;;;;;;;;;;5110910;27;20890;-73
2022/01/26 09:49:34;;;;;;;11.20;6.50;;;;;;;;;;5114317;27;20724;-72
2022/01/26 09:52:02;;;;;;;17.60;10.00;;;;;;;;;;5109923;28;20710;-72
2022/01/26 09:54:31;;;;;;;12.03;6.20;;;;;;;;;;5110401;28;20448;-72
2022/01/26 09:57:06;;;;;;;7.73;4.70;;;;;;;;;;5108634;28;20515;-72
2022/01/26 09:59:49;;;;;;;15.00;7.57;;;;;;;;;;5108293;28;20493;-72
2022/01/26 10:02:26;;;;;;;14.50;7.70;;;;;;;;;;5096433;27;20471;-71
2022/01/26 10:04:58;;;;;;;15.57;7.80;;;;;;;;;;5097200;28;20452;-73
2022/01/26 10:07:30;;;;;;;14.43;8.10;;;;;;;;;;5106127;28;20901;-73
2022/01/26 10:16:04;;;;;;;9.90;4.70;;;;;;;;;;5135438;27;20437;-73
2022/01/26 10:18:34;;;;;;;12.33;5.43;;;;;;;;;;5100575;28;20547;-72
2022/01/26 10:23:47;;;;;;;11.40;5.80;;;;;;;;;;5095041;28;20496;-72
2022/01/26 10:26:15;;;;;;;20.33;9.40;;;;;;;;;;5108277;28;20549;-72
2022/01/26 10:28:47;;;;;;;13.27;6.20;;;;;;;;;;5114015;28;20455;-71
2022/01/26 10:31:15;;;;;;;11.87;5.93;;;;;;;;;;5112142;28;20490;-71
2022/01/26 10:33:57;;;;;;;21.43;11.47;;;;;;;;;;5112075;28;20486;-72
2022/01/26 10:36:44;;;;;;;16.00;8.63;;;;;;;;;;5097070;28;20456;-72
2022/01/26 10:39:21;;;;;;;15.87;8.00;;;;;;;;;;5103444;28;20522;-72
2022/01/26 10:41:59;;;;;;;9.37;4.63;;;;;;;;;;5113285;28;20446;-72
2022/01/26 10:44:32;;;;;;;12.60;7.13;;;;;;;;;;5115954;27;20458;-70
2022/01/26 10:47:11;;;;;;;13.67;6.90;;;;;;;;;;5112982;27;20465;-71
2022/01/26 10:50:06;;;;;;;19.10;8.10;;;;;;;;;;5114564;28;20557;-71
2022/01/26 10:52:40;;;;;;;20.03;8.70;;;;;;;;;;5114447;28;21118;-72
2022/01/26 10:55:09;;;;;;;17.70;8.70;;;;;;;;;;5114790;28;20855;-72
2022/01/26 10:57:37;;;;;;;19.93;9.10;;;;;;;;;;5117149;28;20474;-71
2022/01/26 11:00:10;;;;;;;17.23;8.17;;;;;;;;;;5117095;28;20447;-72
2022/01/26 11:02:48;;;;;;;21.30;10.80;;;;;;;;;;5116988;28;20939;-71
2022/01/26 11:05:20;;;;;;;16.30;8.03;;;;;;;;;;5116247;27;20507;-72
2022/01/26 11:07:55;;;;;;;25.17;10.07;;;;;;;;;;5117119;27;20455;-72
2022/01/26 11:10:32;;;;;;;23.93;11.77;;;;;;;;;;5115527;27;20458;-71
2022/01/26 11:13:02;;;;;;;21.23;11.90;;;;;;;;;;5116141;28;20493;-71
2022/01/26 11:15:29;;;;;;;15.33;7.97;;;;;;;;;;5115706;28;20655;-71
2022/01/26 11:18:29;;;;;;;18.83;9.90;;;;;;;;;;5114470;27;20455;-70
2022/01/26 11:21:01;;;;;;;26.50;12.37;;;;;;;;;;5095154;28;20451;-71
2022/01/26 11:26:25;;;;;;;39.17;14.37;;;;;;;;;;5095938;28;20470;-71
2022/01/26 11:28:53;;;;;;;27.20;10.93;;;;;;;;;;5104402;28;20529;-72
2022/01/26 11:31:24;;;;;;;24.00;10.50;;;;;;;;;;5105729;27;20462;-72
2022/01/26 11:33:51;;;;;;;23.90;9.10;;;;;;;;;;5116579;27;20486;-71
2022/01/26 11:36:20;;;;;;;26.67;9.97;;;;;;;;;;5103411;28;20530;-71
2022/01/26 11:42:10;;;;;;;25.10;12.20;;;;;;;;;;5111639;27;20858;-71
2022/01/26 11:45:07;;;;;;;16.17;9.37;;;;;;;;;;5073789;27;20449;-73
2022/01/26 11:47:36;;;;;;;34.10;14.20;;;;;;;;;;5112952;28;20462;-72
2022/01/26 11:50:12;;;;;;;29.60;14.97;;;;;;;;;;5104503;28;20463;-71
2022/01/26 11:53:06;;;;;;;33.23;14.93;;;;;;;;;;5106402;28;20501;-71
2022/01/26 11:55:40;;;;;;;25.93;11.77;;;;;;;;;;5115657;27;20590;-72
2022/01/26 11:58:09;;;;;;;24.60;9.60;;;;;;;;;;5116445;28;20928;-72
2022/01/26 12:03:34;;;;;;;17.30;8.60;;;;;;;;;;5115263;28;20451;-71
2022/01/26 12:06:20;;;;;;;17.53;9.37;;;;;;;;;;5117090;28;20450;-73
2022/01/26 12:08:58;;;;;;;29.20;9.87;;;;;;;;;;5117413;28;20503;-71
2022/01/26 12:11:29;;;;;;;16.90;9.00;;;;;;;;;;5105754;28;20447;-71
2022/01/26 12:13:59;;;;;;;25.40;11.27;;;;;;;;;;5096917;28;20569;-72
2022/01/26 12:16:34;;;;;;;21.83;9.20;;;;;;;;;;5096781;28;20510;-71
2022/01/26 12:19:21;;;;;;;17.60;6.43;;;;;;;;;;5095299;28;20554;-71
2022/01/26 12:35:50;;;;;;;22.23;8.60;;;;;;;;;;5100620;28;20493;-72
2022/01/26 12:38:25;;;;;;;19.53;9.93;;;;;;;;;;5109631;27;20482;-73
2022/01/26 12:43:42;;;;;;;20.60;10.47;;;;;;;;;;5095280;28;20454;-71
2022/01/26 12:46:11;;;;;;;26.50;9.67;;;;;;;;;;5108635;28;20534;-73
2022/01/26 12:48:41;;;;;;;18.90;8.33;;;;;;;;;;5103438;28;20452;-72
2022/01/26 12:51:12;;;;;;;17.63;8.87;;;;;;;;;;5112382;28;20451;-72
2022/01/26 12:53:41;;;;;;;34.50;15.90;;;;;;;;;;5111958;27;20531;-72
2022/01/26 12:56:10;;;;;;;26.30;11.90;;;;;;;;;;5108706;28;20526;-72
2022/01/26 12:58:37;;;;;;;21.10;11.63;;;;;;;;;;5109581;27;20875;-72
2022/01/26 13:01:06;;;;;;;34.97;15.47;;;;;;;;;;5112119;28;20443;-72
2022/01/26 13:03:40;;;;;;;39.93;19.00;;;;;;;;;;5114824;28;20511;-71
2022/01/26 13:06:09;;;;;;;40.60;16.17;;;;;;;;;;5106769;28;20543;-72
2022/01/26 13:08:52;;;;;;;32.87;15.07;;;;;;;;;;5108518;28;20440;-72
2022/01/26 13:11:31;;;;;;;37.00;12.83;;;;;;;;;;5097830;28;20469;-71
2022/01/26 13:14:19;;;;;;;35.40;14.10;;;;;;;;;;5102556;28;20640;-72
2022/01/26 13:16:58;;;;;;;42.43;17.40;;;;;;;;;;5114393;27;20796;-72
2022/01/26 13:25:18;;;;;;;33.83;14.23;;;;;;;;;;5111271;28;20517;-72
2022/01/26 13:28:08;;;;;;;34.00;15.60;;;;;;;;;;5114894;27;20485;-71
2022/01/26 13:30:49;;;;;;;24.13;12.37;;;;;;;;;;5113862;28;20454;-72
2022/01/26 13:33:37;;;;;;;33.13;13.73;;;;;;;;;;5114450;27;20489;-72
2022/01/26 13:38:56;;;;;;;24.40;11.50;;;;;;;;;;5112859;27;20534;-71
2022/01/26 13:41:44;;;;;;;40.47;17.03;;;;;;;;;;5112354;27;20462;-72
2022/01/26 13:44:40;;;;;;;36.67;18.30;;;;;;;;;;5100841;27;20546;-72
2022/01/26 13:47:43;;;;;;;33.57;12.60;;;;;;;;;;5109296;27;20523;-74
2022/01/26 13:50:20;;;;;;;28.43;14.70;;;;;;;;;;5112541;28;20601;-72
2022/01/26 13:52:53;;;;;;;26.07;11.70;;;;;;;;;;5103562;27;20847;-73
2022/01/26 13:55:44;;;;;;;32.67;15.20;;;;;;;;;;5106243;28;20508;-72
2022/01/26 14:00:58;;;;;;;40.60;17.40;;;;;;;;;;5102722;27;20948;-72
2022/01/26 14:03:31;;;;;;;35.20;13.60;;;;;;;;;;5092503;28;20529;-71
2022/01/26 14:06:03;;;;;;;25.80;11.73;;;;;;;;;;5094510;28;20504;-72
2022/01/26 14:08:30;;;;;;;29.43;14.40;;;;;;;;;;5092974;28;20475;-72
2022/01/26 14:11:04;;;;;;;36.90;17.90;;;;;;;;;;5107700;27;20879;-72
2022/01/26 14:13:36;;;;;;;24.40;14.73;;;;;;;;;;5113296;27;20501;-73
2022/01/26 14:16:10;;;;;;;27.17;12.47;;;;;;;;;;5111829;27;20485;-72
2022/01/26 14:21:43;;;;;;;42.73;18.83;;;;;;;;;;5109774;27;20495;-73
2022/01/26 14:24:31;;;;;;;38.40;14.50;;;;;;;;;;5115436;27;20446;-73
2022/01/26 14:27:02;;;;;;;28.40;12.60;;;;;;;;;;5111906;28;20541;-73
2022/01/26 14:29:42;;;;;;;47.50;16.33;;;;;;;;;;5114664;28;20458;-72
2022/01/26 14:32:31;;;;;;;42.07;16.47;;;;;;;;;;5117352;28;20534;-73
2022/01/26 14:35:24;;;;;;;42.40;16.13;;;;;;;;;;5099193;28;20459;-73
2022/01/26 14:55:13;;;;;;;34.57;16.10;;;;;;;;;;5095976;28;20719;-73
2022/01/26 15:09:26;;;;;;;23.37;10.47;;;;;;;;;;5113948;28;20450;-74
2022/01/26 15:40:34;;;;;;;38.60;15.17;;;;;;;;;;5114732;27;20439;-73
2022/01/26 15:52:04;;;;;;;26.77;12.00;;;;;;;;;;5117877;27;20469;-73
2022/01/26 16:06:14;;;;;;;53.77;22.90;;;;;;;;;;5098387;28;20466;-73
2022/01/26 16:20:34;;;;;;;50.00;20.30;;;;;;;;;;5050074;28;20465;-73
2022/01/26 17:24:51;;;;;;;44.03;20.67;;;;;;;;;;5111571;27;20847;-73
2022/01/26 18:04:20;;;;;;;64.57;24.93;;;;;;;;;;5075523;28;20432;-73
2022/01/26 18:15:35;;;;;;;37.60;17.50;;;;;;;;;;5077969;28;20454;-74
2022/01/26 18:26:31;;;;;;;37.60;14.67;;;;;;;;;;5062676;28;20447;-74
2022/01/26 18:40:32;;;;;;;54.03;20.97;;;;;;;;;;5099187;28;20873;-74
2022/01/26 18:51:12;;;;;;;53.33;21.13;;;;;;;;;;5053111;28;20438;-74
2022/01/26 18:53:46;;;;;;;41.40;18.30;;;;;;;;;;5093384;28;20789;-76
2022/01/26 18:56:19;;;;;;;47.87;18.43;;;;;;;;;;5087013;28;20449;-73
2022/01/26 18:58:47;;;;;;;34.30;13.07;;;;;;;;;;5078005;28;20889;-73
2022/01/26 19:01:15;;;;;;;34.80;14.67;;;;;;;;;;5077989;28;20563;-73
2022/01/26 19:03:43;;;;;;;24.70;11.90;;;;;;;;;;5077515;28;20450;-73
2022/01/26 19:06:10;;;;;;;57.07;19.43;;;;;;;;;;5077654;28;20453;-73
2022/01/26 19:08:42;;;;;;;35.37;16.03;;;;;;;;;;5078293;28;20463;-73
2022/01/26 19:11:10;;;;;;;41.77;19.27;;;;;;;;;;5087394;28;20872;-72
2022/01/26 19:13:39;;;;;;;45.40;19.67;;;;;;;;;;5089117;28;20484;-73
2022/01/26 19:16:15;;;;;;;45.10;20.60;;;;;;;;;;5075329;28;20457;-73
2022/01/26 19:18:54;;;;;;;36.03;16.43;;;;;;;;;;5091738;28;20862;-71
2022/01/26 19:21:38;;;;;;;35.73;14.30;;;;;;;;;;5082451;28;20447;-73
2022/01/26 19:24:19;;;;;;;64.87;21.83;;;;;;;;;;5086892;28;20483;-72
2022/01/26 19:26:51;;;;;;;49.93;19.47;;;;;;;;;;5087601;28;20498;-72
2022/01/26 19:29:29;;;;;;;26.03;11.77;;;;;;;;;;5081442;28;20443;-73
2022/01/26 19:32:20;;;;;;;28.03;13.63;;;;;;;;;;5086825;28;20540;-73
2022/01/26 19:41:01;;;;;;;39.53;16.73;;;;;;;;;;5072311;28;20531;-73
2022/01/26 19:43:50;;;;;;;39.03;17.20;;;;;;;;;;5080442;28;20451;-73
2022/01/26 19:46:28;;;;;;;32.43;15.30;;;;;;;;;;5082654;28;20457;-72
2022/01/26 19:51:52;;;;;;;45.93;17.67;;;;;;;;;;5086578;28;20732;-73
2022/01/26 19:54:19;;;;;;;40.63;15.40;;;;;;;;;;5094308;28;20502;-73
2022/01/26 19:56:52;;;;;;;29.87;13.83;;;;;;;;;;5082209;28;20464;-73
2022/01/26 19:59:20;;;;;;;31.17;13.87;;;;;;;;;;5087437;28;20460;-73
2022/01/26 20:01:50;;;;;;;52.13;18.23;;;;;;;;;;5092409;28;20440;-72
2022/01/26 20:04:17;;;;;;;36.90;16.17;;;;;;;;;;5081696;28;20456;-73
2022/01/26 20:06:47;;;;;;;46.37;16.60;;;;;;;;;;5092600;28;20453;-73
2022/01/26 20:09:22;;;;;;;39.40;15.00;;;;;;;;;;5088375;28;20459;-74
2022/01/26 20:11:55;;;;;;;25.90;11.90;;;;;;;;;;5083990;28;20456;-73
2022/01/26 20:14:27;;;;;;;44.77;19.30;;;;;;;;;;5094848;28;20788;-73
2022/01/26 20:16:57;;;;;;;30.90;13.27;;;;;;;;;;5078627;28;20456;-73
2022/01/26 20:19:25;;;;;;;38.07;16.27;;;;;;;;;;5089906;28;20463;-72
2022/01/26 20:21:53;;;;;;;29.17;12.43;;;;;;;;;;5081666;28;20745;-73
2022/01/26 20:24:20;;;;;;;46.70;16.77;;;;;;;;;;5095364;28;20452;-73
2022/01/26 20:26:47;;;;;;;46.87;17.63;;;;;;;;;;5082850;28;20478;-72
2022/01/26 20:29:32;;;;;;;42.63;18.90;;;;;;;;;;5088985;28;20440;-73
2022/01/26 20:32:00;;;;;;;45.83;19.40;;;;;;;;;;5081244;28;20451;-72
2022/01/26 20:34:27;;;;;;;24.53;11.33;;;;;;;;;;5091429;28;20491;-73
2022/01/26 20:37:00;;;;;;;36.73;13.47;;;;;;;;;;5085581;28;20467;-73
2022/01/26 20:39:27;;;;;;;37.17;14.20;;;;;;;;;;5083254;28;20476;-72
2022/01/26 20:41:54;;;;;;;35.93;12.63;;;;;;;;;;5091768;28;20459;-73
2022/01/26 20:44:21;;;;;;;39.70;15.10;;;;;;;;;;5079751;28;20768;-73